createdAt,value
2023-05-02T00:01:59.495Z,7.76
2023-05-02T00:04:27.189Z,7.71
2023-05-02T00:06:54.685Z,8.40
2023-05-02T00:09:22.123Z,8.71
2023-05-02T00:11:49.440Z,8.20
2023-05-02T00:14:16.563Z,7.68
2023-05-02T00:16:43.899Z,7.24
2023-05-02T00:19:11.231Z,6.72
2023-05-02T00:21:38.735Z,6.26
2023-05-02T00:24:06.708Z,6.01
2023-05-02T00:26:33.714Z,5.81
2023-05-02T00:29:01.071Z,5.54
2023-05-02T00:31:28.497Z,5.30
2023-05-02T00:33:56.233Z,5.07
2023-05-02T00:36:23.917Z,4.84
2023-05-02T00:38:51.373Z,4.66
2023-05-02T00:41:18.526Z,4.47
2023-05-02T00:43:46.119Z,4.41
2023-05-02T00:46:13.861Z,4.43
2023-05-02T00:48:40.884Z,4.48
2023-05-02T00:51:12.854Z,4.45
2023-05-02T00:53:40.654Z,4.48
2023-05-02T00:56:09.351Z,4.45
2023-05-02T00:58:37.813Z,4.43
2023-05-02T01:01:29.697Z,4.54
2023-05-02T01:04:00.138Z,4.79
2023-05-02T01:07:00.811Z,5.01
2023-05-02T01:09:38.011Z,5.24
2023-05-02T01:12:33.119Z,5.46
2023-05-02T01:15:01.035Z,5.80
2023-05-02T01:17:32.263Z,6.08
2023-05-02T01:20:01.692Z,6.16
2023-05-02T01:22:30.360Z,6.57
2023-05-02T01:25:22.789Z,6.79
2023-05-02T01:28:02.208Z,6.95
2023-05-02T01:30:30.634Z,7.04
2023-05-02T01:32:58.455Z,7.19
2023-05-02T01:35:26.023Z,7.77
2023-05-02T01:37:54.637Z,8.18
2023-05-02T01:40:22.375Z,8.79
2023-05-02T01:42:50.585Z,8.99
2023-05-02T01:45:17.800Z,9.66
2023-05-02T01:47:45.216Z,10.44
2023-05-02T01:50:14.341Z,10.51
2023-05-02T01:52:41.571Z,11.72
2023-05-02T01:55:11.391Z,13.22
2023-05-02T01:57:40.915Z,15.02
2023-05-02T02:00:08.765Z,16.58
2023-05-02T02:02:44.537Z,16.27
2023-05-02T02:05:14.292Z,15.20
2023-05-02T02:07:41.661Z,15.03
2023-05-02T02:10:09.318Z,15.60
2023-05-02T02:12:42.915Z,15.69
2023-05-02T02:15:12.549Z,15.98
2023-05-02T02:17:48.772Z,16.46
2023-05-02T02:20:16.234Z,17.53
2023-05-02T02:22:43.804Z,17.64
2023-05-02T02:25:12.185Z,17.60
2023-05-02T02:27:39.611Z,16.76
2023-05-02T02:30:08.032Z,15.66
2023-05-02T02:32:35.554Z,14.83
2023-05-02T02:35:05.831Z,14.27
2023-05-02T02:37:54.067Z,13.79
2023-05-02T02:40:29.820Z,13.11
2023-05-02T02:43:20.216Z,12.81
2023-05-02T02:46:11.984Z,12.68
2023-05-02T02:48:44.764Z,12.71
2023-05-02T02:51:24.813Z,13.02
2023-05-02T02:54:25.796Z,14.25
2023-05-02T02:57:01.606Z,15.29
2023-05-02T02:59:38.554Z,16.24
2023-05-02T03:02:08.626Z,16.83
2023-05-02T03:04:38.167Z,15.95
2023-05-02T03:07:05.892Z,15.14
2023-05-02T03:09:46.805Z,15.07
2023-05-02T03:12:19.674Z,15.49
2023-05-02T03:14:49.021Z,15.70
2023-05-02T03:17:17.350Z,14.88
2023-05-02T03:19:45.915Z,14.22
2023-05-02T03:22:13.175Z,13.75
2023-05-02T03:24:41.064Z,13.30
2023-05-02T03:27:09.611Z,13.15
2023-05-02T03:29:41.423Z,13.47
2023-05-02T03:32:11.186Z,14.08
2023-05-02T03:34:41.877Z,14.52
2023-05-02T03:37:10.342Z,14.46
2023-05-02T03:39:37.647Z,14.28
2023-05-02T03:42:05.479Z,13.86
2023-05-02T03:44:32.807Z,13.48
2023-05-02T03:47:00.337Z,13.07
2023-05-02T03:49:28.874Z,12.72
2023-05-02T03:51:56.658Z,12.43
2023-05-02T03:54:32.435Z,12.33
2023-05-02T03:57:00.559Z,12.46
2023-05-02T03:59:34.947Z,12.74
2023-05-02T04:02:11.927Z,12.67
2023-05-02T04:04:43.957Z,12.47
2023-05-02T04:07:18.951Z,12.34
2023-05-02T04:09:49.873Z,12.53
2023-05-02T04:12:17.517Z,12.93
2023-05-02T04:14:48.375Z,13.14
2023-05-02T04:17:16.264Z,13.04
2023-05-02T04:19:49.353Z,12.76
2023-05-02T04:22:18.061Z,12.45
2023-05-02T04:24:50.778Z,11.88
2023-05-02T04:27:19.490Z,11.45
2023-05-02T04:29:50.464Z,11.22
2023-05-02T04:32:19.208Z,11.19
2023-05-02T04:34:47.649Z,10.90
2023-05-02T04:37:16.195Z,10.49
2023-05-02T04:39:45.548Z,10.46
2023-05-02T04:42:19.564Z,10.59
2023-05-02T04:45:22.298Z,10.83
2023-05-02T04:47:50.855Z,10.73
2023-05-02T04:50:18.256Z,10.29
2023-05-02T04:52:45.342Z,9.95
2023-05-02T04:55:13.004Z,9.55
2023-05-02T04:57:40.926Z,9.29
2023-05-02T05:00:12.490Z,9.06
2023-05-02T05:02:39.848Z,9.09
2023-05-02T05:05:09.804Z,9.05
2023-05-02T05:07:37.192Z,8.90
2023-05-02T05:10:04.886Z,8.91
2023-05-02T05:12:40.951Z,8.97
2023-05-02T05:15:10.338Z,9.08
2023-05-02T05:17:38.119Z,9.24
2023-05-02T05:22:41.257Z,9.55
2023-05-02T05:25:10.601Z,9.74
2023-05-02T05:27:38.461Z,9.89
2023-05-02T05:30:08.724Z,10.05
2023-05-02T05:32:36.316Z,10.24
2023-05-02T05:35:04.283Z,10.47
2023-05-02T05:37:31.693Z,10.82
2023-05-02T05:40:01.400Z,10.89
2023-05-02T05:42:29.346Z,11.08
2023-05-02T05:45:02.381Z,11.29
2023-05-02T05:47:30.855Z,11.43
2023-05-02T05:49:58.611Z,11.35
2023-05-02T05:52:30.154Z,10.98
2023-05-02T05:55:00.402Z,10.83
2023-05-02T05:57:29.183Z,10.73
2023-05-02T05:59:57.613Z,10.85
2023-05-02T06:02:25.857Z,10.64
2023-05-02T06:04:53.373Z,10.65
2023-05-02T06:07:23.357Z,10.50
2023-05-02T06:09:50.794Z,10.61
2023-05-02T06:12:18.482Z,10.65
2023-05-02T06:14:46.365Z,10.33
2023-05-02T06:17:14.356Z,9.88
2023-05-02T06:19:42.120Z,9.72
2023-05-02T06:22:12.837Z,9.66
2023-05-02T06:24:40.288Z,9.48
2023-05-02T06:27:07.681Z,9.20
2023-05-02T06:29:35.227Z,9.02
2023-05-02T06:32:02.420Z,8.89
2023-05-02T06:34:32.970Z,8.94
2023-05-02T06:37:00.056Z,8.90
2023-05-02T06:39:27.098Z,9.00
2023-05-02T06:42:00.504Z,8.96
2023-05-02T06:44:28.975Z,8.68
2023-05-02T06:46:56.359Z,8.69
2023-05-02T06:49:23.944Z,8.53
2023-05-02T06:51:51.364Z,8.49
2023-05-02T06:54:18.742Z,8.52
2023-05-02T06:56:46.272Z,8.60
2023-05-02T06:59:13.581Z,8.72
2023-05-02T07:01:41.035Z,8.80
2023-05-02T07:04:08.823Z,8.86
2023-05-02T07:06:36.528Z,8.83
2023-05-02T07:09:04.149Z,8.85
2023-05-02T07:11:31.598Z,8.86
2023-05-02T07:13:59.025Z,8.85
2023-05-02T07:16:26.103Z,8.79
2023-05-02T07:18:53.745Z,8.75
2023-05-02T07:21:21.088Z,8.78
2023-05-02T07:23:48.486Z,8.97
2023-05-02T07:26:15.922Z,9.21
2023-05-02T07:28:43.009Z,9.18
2023-05-02T07:31:10.336Z,9.12
2023-05-02T07:33:37.670Z,8.85
2023-05-02T07:36:05.082Z,8.64
2023-05-02T07:38:32.421Z,8.56
2023-05-02T07:41:00.587Z,8.56
2023-05-02T07:43:28.031Z,8.48
2023-05-02T07:45:55.921Z,8.37
2023-05-02T07:48:23.733Z,8.29
2023-05-02T07:50:52.806Z,8.38
2023-05-02T07:53:20.366Z,8.46
2023-05-02T07:55:47.428Z,8.53
2023-05-02T07:58:14.498Z,8.56
2023-05-02T08:00:41.810Z,8.79
2023-05-02T08:03:09.691Z,8.85
2023-05-02T08:05:37.078Z,8.77
2023-05-02T08:08:04.644Z,8.75
2023-05-02T08:10:31.996Z,8.77
2023-05-02T08:12:59.116Z,8.91
2023-05-02T08:15:26.325Z,8.84
2023-05-02T08:17:53.633Z,8.80
2023-05-02T08:20:22.250Z,8.72
2023-05-02T08:22:50.185Z,8.77
2023-05-02T08:25:17.610Z,8.84
2023-05-02T08:27:45.631Z,9.03
2023-05-02T08:30:13.086Z,9.12
2023-05-02T08:32:40.961Z,9.08
2023-05-02T08:35:08.271Z,8.97
2023-05-02T08:37:36.239Z,8.82
2023-05-02T08:40:03.809Z,8.67
2023-05-02T08:42:32.630Z,8.72
2023-05-02T08:45:00.576Z,8.79
2023-05-02T08:47:28.484Z,8.76
2023-05-02T08:49:56.110Z,8.80
2023-05-02T08:52:23.667Z,8.78
2023-05-02T08:54:51.401Z,8.66
2023-05-02T08:57:18.425Z,8.66
2023-05-02T08:59:45.920Z,8.66
2023-05-02T09:02:36.393Z,8.69
2023-05-02T09:05:07.604Z,8.60
2023-05-02T09:07:48.661Z,8.50
2023-05-02T09:10:16.016Z,8.46
2023-05-02T09:12:43.264Z,8.37
2023-05-02T09:15:16.991Z,8.44
2023-05-02T09:17:47.536Z,8.57
2023-05-02T09:20:16.114Z,8.65
2023-05-02T09:22:50.689Z,8.63
2023-05-02T09:25:18.447Z,8.73
2023-05-02T09:28:04.880Z,8.84
2023-05-02T09:30:32.416Z,8.97
2023-05-02T09:32:59.949Z,9.06
2023-05-02T09:35:27.161Z,9.07
2023-05-02T09:37:58.334Z,8.99
2023-05-02T09:40:27.651Z,8.82
2023-05-02T09:42:54.815Z,8.78
2023-05-02T09:45:23.725Z,8.73
2023-05-02T09:47:51.392Z,8.66
2023-05-02T09:50:39.076Z,8.74
2023-05-02T09:53:10.702Z,8.67
2023-05-02T09:55:38.266Z,8.62
2023-05-02T09:58:06.265Z,8.69
2023-05-02T10:00:44.175Z,8.57
2023-05-02T10:03:11.508Z,8.49
2023-05-02T10:05:39.533Z,8.41
2023-05-02T10:08:07.445Z,8.42
2023-05-02T10:10:39.442Z,8.36
2023-05-02T10:13:08.611Z,8.39
2023-05-02T10:15:40.577Z,8.38
2023-05-02T10:18:15.866Z,8.35
2023-05-02T10:20:58.703Z,8.28
2023-05-02T10:23:27.603Z,8.32
2023-05-02T10:25:56.312Z,8.44
2023-05-02T10:28:24.710Z,8.55
2023-05-02T10:30:52.361Z,8.63
2023-05-02T10:33:21.455Z,8.50
2023-05-02T10:35:49.213Z,8.48
2023-05-02T10:38:22.303Z,8.49
2023-05-02T10:41:01.791Z,8.47
2023-05-02T10:43:32.398Z,8.46
2023-05-02T10:46:00.031Z,8.49
2023-05-02T10:48:27.722Z,8.60
2023-05-02T10:51:01.053Z,8.63
2023-05-02T10:53:28.935Z,8.52
2023-05-02T10:56:21.184Z,8.48
2023-05-02T10:58:49.494Z,8.52
2023-05-02T11:01:29.185Z,8.43
2023-05-02T11:04:00.557Z,8.42
2023-05-02T11:06:29.455Z,8.40
2023-05-02T11:09:21.562Z,8.34
2023-05-02T11:11:49.434Z,8.23
2023-05-02T11:14:26.197Z,8.25
2023-05-02T11:16:59.713Z,8.24
2023-05-02T11:19:29.172Z,8.20
2023-05-02T11:22:27.802Z,8.17
2023-05-02T11:24:55.155Z,8.17
2023-05-02T11:27:37.672Z,8.14
2023-05-02T11:30:09.591Z,8.02
2023-05-02T11:32:46.222Z,7.86
2023-05-02T11:35:20.808Z,7.75
2023-05-02T11:37:54.748Z,7.68
2023-05-02T11:40:22.184Z,7.63
2023-05-02T11:42:49.242Z,7.57
2023-05-02T11:45:16.649Z,7.53
2023-05-02T11:47:45.758Z,7.48
2023-05-02T11:50:12.876Z,7.43
2023-05-02T11:52:41.316Z,7.46
2023-05-02T11:55:12.839Z,7.46
2023-05-02T11:57:40.603Z,7.42
2023-05-02T12:00:08.345Z,7.39
2023-05-02T12:02:47.924Z,7.36
2023-05-02T12:05:15.715Z,7.36
2023-05-02T12:07:44.807Z,7.30
2023-05-02T12:10:13.212Z,7.26
2023-05-02T12:12:41.324Z,7.24
2023-05-02T12:15:12.788Z,7.24
2023-05-02T12:17:52.965Z,7.22
2023-05-02T12:20:20.412Z,7.11
2023-05-02T12:22:47.971Z,7.05
2023-05-02T12:25:15.239Z,7.00
2023-05-02T12:27:42.353Z,6.95
2023-05-02T12:30:12.592Z,6.95
2023-05-02T12:32:45.189Z,6.94
2023-05-02T12:35:21.627Z,6.95
2023-05-02T12:37:48.885Z,6.91
2023-05-02T12:40:17.394Z,6.86
2023-05-02T12:43:00.902Z,6.80
2023-05-02T12:45:30.735Z,6.68
2023-05-02T12:47:58.122Z,6.57
2023-05-02T12:50:36.865Z,6.50
2023-05-02T12:53:04.439Z,6.42
2023-05-02T12:55:34.716Z,6.35
2023-05-02T12:58:02.428Z,6.28
2023-05-02T13:00:32.264Z,6.21
2023-05-02T13:02:59.747Z,6.12
2023-05-02T13:05:27.167Z,6.04
2023-05-02T13:07:56.331Z,5.97
2023-05-02T13:10:24.953Z,5.90
2023-05-02T13:12:52.734Z,5.81
2023-05-02T13:15:20.518Z,5.69
2023-05-02T13:17:48.431Z,5.60
2023-05-02T13:20:15.938Z,5.54
2023-05-02T13:22:43.401Z,5.50
2023-05-02T13:25:10.621Z,5.40
2023-05-02T13:27:37.964Z,5.34
2023-05-02T13:30:08.874Z,5.26
2023-05-02T13:32:37.532Z,5.21
2023-05-02T13:35:05.730Z,5.16
2023-05-02T13:37:32.844Z,5.06
2023-05-02T13:40:00.238Z,5.04
2023-05-02T13:42:27.792Z,5.03
2023-05-02T13:44:55.640Z,4.99
2023-05-02T13:47:23.216Z,4.92
2023-05-02T13:49:50.681Z,4.88
2023-05-02T13:52:18.061Z,4.84
2023-05-02T13:54:45.043Z,4.79
2023-05-02T13:57:12.450Z,4.74
2023-05-02T13:59:39.827Z,4.67
2023-05-02T14:02:07.837Z,4.65
2023-05-02T14:04:35.211Z,4.57
2023-05-02T14:07:02.262Z,4.53
2023-05-02T14:09:29.802Z,4.45
2023-05-02T14:11:58.421Z,4.38
2023-05-02T14:14:25.746Z,4.31
2023-05-02T14:16:52.827Z,4.22
2023-05-02T14:19:20.449Z,4.17
2023-05-02T14:21:47.900Z,4.16
2023-05-02T14:24:16.451Z,4.12
2023-05-02T14:26:43.807Z,4.11
2023-05-02T14:29:11.161Z,4.08
2023-05-02T14:31:38.533Z,4.00
2023-05-02T14:34:08.176Z,3.98
2023-05-02T14:36:36.192Z,3.92
2023-05-02T14:39:03.536Z,3.86
2023-05-02T14:41:30.565Z,3.84
2023-05-02T14:43:58.020Z,3.85
2023-05-02T14:46:25.468Z,3.84
2023-05-02T14:48:52.613Z,3.86
2023-05-02T14:51:20.410Z,3.84
2023-05-02T14:53:49.249Z,3.84
2023-05-02T14:56:18.806Z,3.81
2023-05-02T14:58:46.402Z,3.72
2023-05-02T15:01:21.794Z,3.71
2023-05-02T15:04:05.039Z,3.64
2023-05-02T15:06:34.926Z,3.56
2023-05-02T15:09:02.452Z,3.54
2023-05-02T15:11:30.305Z,3.50
2023-05-02T15:13:59.470Z,3.54
2023-05-02T15:16:27.248Z,3.52
2023-05-02T15:18:55.833Z,3.52
2023-05-02T15:21:23.156Z,3.52
2023-05-02T15:23:50.456Z,3.52
2023-05-02T15:26:18.111Z,3.50
2023-05-02T15:28:45.512Z,3.49
2023-05-02T15:31:12.928Z,3.46
2023-05-02T15:33:40.610Z,3.39
2023-05-02T15:36:08.308Z,3.36
2023-05-02T15:38:39.288Z,3.28
2023-05-02T15:41:09.346Z,3.27
2023-05-02T15:43:37.343Z,3.22
2023-05-02T15:46:05.033Z,3.13
2023-05-02T15:48:35.565Z,3.07
2023-05-02T15:51:03.205Z,3.02
2023-05-02T15:53:30.328Z,2.98
2023-05-02T15:55:57.674Z,2.97
2023-05-02T15:58:25.168Z,2.92
2023-05-02T16:00:52.733Z,2.93
2023-05-02T16:03:19.903Z,2.91
2023-05-02T16:05:47.558Z,2.88
2023-05-02T16:08:14.916Z,2.88
2023-05-02T16:10:43.468Z,2.92
2023-05-02T16:13:10.791Z,2.93
2023-05-02T16:15:38.897Z,2.94
2023-05-02T16:18:06.264Z,2.94
2023-05-02T16:20:36.320Z,2.94
2023-05-02T16:23:04.617Z,2.91
2023-05-02T16:25:32.409Z,2.90
2023-05-02T16:28:00.105Z,2.91
2023-05-02T16:30:27.930Z,2.91
2023-05-02T16:32:55.185Z,2.88
2023-05-02T16:35:22.702Z,2.86
2023-05-02T16:37:50.055Z,2.83
2023-05-02T16:40:18.003Z,2.78
2023-05-02T16:42:45.403Z,2.75
2023-05-02T16:45:12.819Z,2.71
2023-05-02T16:47:39.999Z,2.67
2023-05-02T16:50:08.194Z,2.62
2023-05-02T16:52:37.335Z,2.58
2023-05-02T16:55:04.877Z,2.52
2023-05-02T16:57:32.161Z,2.47
2023-05-02T17:00:00.314Z,2.42
2023-05-02T17:02:28.300Z,2.36
2023-05-02T17:04:55.566Z,2.30
2023-05-02T17:07:23.100Z,2.26
2023-05-02T17:09:50.730Z,2.26
2023-05-02T17:12:22.160Z,2.25
2023-05-02T17:14:49.519Z,2.24
2023-05-02T17:17:18.529Z,2.23
2023-05-02T17:19:45.950Z,2.23
2023-05-02T17:22:13.309Z,2.22
2023-05-02T17:24:41.973Z,2.19
2023-05-02T17:27:11.044Z,2.14
2023-05-02T17:29:38.358Z,2.10
2023-05-02T17:32:05.959Z,2.07
2023-05-02T17:34:35.670Z,2.04
2023-05-02T17:37:03.057Z,2.02
2023-05-02T17:39:30.178Z,2.01
2023-05-02T17:41:57.260Z,2.00
2023-05-02T17:44:24.627Z,1.97
2023-05-02T17:46:51.655Z,1.93
2023-05-02T17:49:18.753Z,1.94
2023-05-02T17:51:46.231Z,1.93
2023-05-02T17:54:13.426Z,1.91
2023-05-02T17:56:40.418Z,1.92
2023-05-02T17:59:07.838Z,1.96
2023-05-02T18:01:35.412Z,1.99
2023-05-02T18:04:03.813Z,1.99
2023-05-02T18:06:34.201Z,1.96
2023-05-02T18:09:01.885Z,1.93
2023-05-02T18:11:38.351Z,1.97
2023-05-02T18:14:05.938Z,1.99
2023-05-02T18:16:34.103Z,1.95
2023-05-02T18:19:01.741Z,1.94
2023-05-02T18:21:30.665Z,1.94
2023-05-02T18:23:57.707Z,1.96
2023-05-02T18:26:24.827Z,2.00
2023-05-02T18:28:52.914Z,2.04
2023-05-02T18:31:20.797Z,2.05
2023-05-02T18:33:48.022Z,2.08
2023-05-02T18:36:20.204Z,2.07
2023-05-02T18:38:47.514Z,2.09
2023-05-02T18:41:14.556Z,2.12
2023-05-02T18:43:42.207Z,2.11
2023-05-02T18:46:11.817Z,2.08
2023-05-02T18:48:39.507Z,2.07
2023-05-02T18:51:06.601Z,2.04
2023-05-02T18:53:33.980Z,2.04
2023-05-02T18:56:01.073Z,2.04
2023-05-02T18:58:28.561Z,2.05
2023-05-02T19:00:55.762Z,2.04
2023-05-02T19:03:23.517Z,2.07
2023-05-02T19:05:51.381Z,2.05
2023-05-02T19:08:18.524Z,2.07
2023-05-02T19:10:46.272Z,2.07
2023-05-02T19:13:14.251Z,2.08
2023-05-02T19:15:41.721Z,2.08
2023-05-02T19:18:09.046Z,2.13
2023-05-02T19:20:36.294Z,2.10
2023-05-02T19:23:18.926Z,2.12
2023-05-02T19:25:47.038Z,2.08
2023-05-02T19:28:16.379Z,2.07
2023-05-02T19:30:45.131Z,2.04
2023-05-02T19:33:12.445Z,2.06
2023-05-02T19:35:39.860Z,2.08
2023-05-02T19:38:07.184Z,2.09
2023-05-02T19:40:34.172Z,2.07
2023-05-02T19:43:01.546Z,2.03
2023-05-02T19:45:28.900Z,1.98
2023-05-02T19:47:56.396Z,1.97
2023-05-02T19:50:25.524Z,1.92
2023-05-02T19:52:52.726Z,1.93
2023-05-02T19:55:20.467Z,1.94
2023-05-02T19:57:48.337Z,1.93
2023-05-02T20:00:15.858Z,1.91
2023-05-02T20:02:44.335Z,1.88
2023-05-02T20:05:11.800Z,1.85
2023-05-02T20:07:38.867Z,1.82
2023-05-02T20:10:06.598Z,1.77
2023-05-02T20:12:34.086Z,1.75
2023-05-02T20:15:01.552Z,1.78
2023-05-02T20:17:28.953Z,1.77
2023-05-02T20:19:57.179Z,1.78
2023-05-02T20:22:24.089Z,1.76
2023-05-02T20:24:51.252Z,1.78
2023-05-02T20:27:18.252Z,1.78
2023-05-02T20:29:45.992Z,1.77
2023-05-02T20:32:13.650Z,1.75
2023-05-02T20:34:41.045Z,1.71
2023-05-02T20:37:10.207Z,1.67
2023-05-02T20:39:37.429Z,1.63
2023-05-02T20:42:05.392Z,1.61
2023-05-02T20:44:36.163Z,1.59
2023-05-02T20:47:06.364Z,1.59
2023-05-02T20:49:34.427Z,1.63
2023-05-02T20:52:05.346Z,1.65
2023-05-02T20:54:33.098Z,1.67
2023-05-02T20:57:00.463Z,1.73
2023-05-02T20:59:27.355Z,1.77
2023-05-02T21:01:54.749Z,1.79
2023-05-02T21:04:21.934Z,1.74
2023-05-02T21:06:49.640Z,1.71
2023-05-02T21:09:16.794Z,1.68
2023-05-02T21:11:44.359Z,1.70
2023-05-02T21:14:11.718Z,1.70
2023-05-02T21:16:39.102Z,1.69
2023-05-02T21:19:06.490Z,1.68
2023-05-02T21:21:33.644Z,1.65
2023-05-02T21:24:01.510Z,1.63
2023-05-02T21:26:28.583Z,1.60
2023-05-02T21:28:56.051Z,1.59
2023-05-02T21:31:23.049Z,1.56
2023-05-02T21:33:50.234Z,1.54
2023-05-02T21:36:17.256Z,1.56
2023-05-02T21:38:44.478Z,1.56
2023-05-02T21:41:11.628Z,1.56
2023-05-02T21:43:39.583Z,1.56
2023-05-02T21:46:07.213Z,1.59
2023-05-02T21:48:34.530Z,1.56
2023-05-02T21:51:07.268Z,1.59
2023-05-02T21:53:34.627Z,1.60
2023-05-02T21:56:02.001Z,1.57
2023-05-02T21:58:29.517Z,1.57
2023-05-02T22:00:56.850Z,1.55
2023-05-02T22:03:25.395Z,1.52
2023-05-02T22:05:54.250Z,1.53
2023-05-02T22:08:21.755Z,1.56
2023-05-02T22:10:48.737Z,1.56
2023-05-02T22:13:16.371Z,1.55
2023-05-02T22:15:46.945Z,1.55
2023-05-02T22:18:17.537Z,1.56
2023-05-02T22:20:44.920Z,1.57
2023-05-02T22:23:12.003Z,1.59
2023-05-02T22:25:43.510Z,1.61
2023-05-02T22:28:13.811Z,1.63
2023-05-02T22:30:44.830Z,1.69
2023-05-02T22:33:12.872Z,1.73
2023-05-02T22:35:40.528Z,1.82
2023-05-02T22:38:10.560Z,1.89
2023-05-02T22:40:38.139Z,1.96
2023-05-02T22:43:05.483Z,2.06
2023-05-02T22:45:33.535Z,2.16
2023-05-02T22:48:01.307Z,2.26
2023-05-02T22:50:31.067Z,2.40
2023-05-02T22:52:59.462Z,2.86
2023-05-02T22:55:26.850Z,3.72
2023-05-02T22:57:54.824Z,4.67
2023-05-02T23:00:23.560Z,5.52
2023-05-02T23:02:50.737Z,6.10
2023-05-02T23:05:17.972Z,6.59
2023-05-02T23:07:45.365Z,7.20
2023-05-02T23:10:12.478Z,7.72
2023-05-02T23:12:39.432Z,8.31
2023-05-02T23:15:07.519Z,8.93
2023-05-02T23:17:39.486Z,9.67
2023-05-02T23:20:10.907Z,10.39
2023-05-02T23:22:43.926Z,10.92
2023-05-02T23:25:11.768Z,11.40
2023-05-02T23:27:38.736Z,11.77
2023-05-02T23:30:07.565Z,12.15
2023-05-02T23:32:35.186Z,12.58
2023-05-02T23:35:03.491Z,12.79
2023-05-02T23:37:30.848Z,12.34
2023-05-02T23:39:59.821Z,11.65
2023-05-02T23:42:28.132Z,11.28
2023-05-02T23:44:57.375Z,11.53
2023-05-02T23:47:27.666Z,11.23
2023-05-02T23:49:55.023Z,11.67
2023-05-02T23:52:22.398Z,12.38
2023-05-02T23:54:49.555Z,12.73
2023-05-02T23:57:17.139Z,12.72
2023-05-02T23:59:44.192Z,11.97
